Terminal Aerodrome Forecast
Issued by NWS

Home | Current Version | Previous Version | Graphics & Text | Print | Product List | Glossary On
Versions: 1 2 3 4 5 6 7 8 9 10 11 12 13 14 15 16 17
000
FTUS43 KICT 010500
TAFSLN
TAF
KSLN 010520Z 0106/0206 VRB06KT P6SM VCTS SCT030CB OVC050
      TEMPO 0106/0110 VRB15G30KT 1SM +TSRA OVC020CB
     FM011000 VRB06KT P6SM SCT040 BKN080
     FM011300 35011KT P6SM BKN120
     FM020000 02008KT P6SM SCT150=

USA.gov is the U.S. government's official web portal to all federal, state and local government web resources and services.